createdAt,value
2019-05-30T00:03:23.379Z,99228.78
2019-05-30T00:08:28.818Z,99234.09
2019-05-30T00:13:37.545Z,99237.52
2019-05-30T00:18:44.187Z,99233.80
2019-05-30T00:23:49.418Z,99235.65
2019-05-30T00:28:56.116Z,99246.65
2019-05-30T00:34:05.856Z,99247.27
2019-05-30T00:39:11.288Z,99248.05
2019-05-30T00:44:16.776Z,99247.46
2019-05-30T00:49:22.138Z,99244.91
2019-05-30T00:54:28.698Z,99240.89
2019-05-30T00:59:34.824Z,99244.42
2019-05-30T01:04:40.160Z,99238.97
2019-05-30T01:09:45.656Z,99239.92
2019-05-30T01:14:51.923Z,99233.06
2019-05-30T01:22:20.873Z,99225.13
2019-05-30T01:27:27.200Z,99223.80
2019-05-30T01:32:32.469Z,99219.80
2019-05-30T01:37:38.128Z,99219.75
2019-05-30T01:42:43.365Z,99222.50
2019-05-30T01:47:48.688Z,99217.87
2019-05-30T01:52:54.167Z,99217.94
2019-05-30T01:58:01.562Z,99218.77
2019-05-30T02:03:07.078Z,99218.77
2019-05-30T02:08:13.286Z,99217.50
2019-05-30T02:13:18.902Z,99213.03
2019-05-30T02:18:24.226Z,99215.56
2019-05-30T02:23:29.798Z,99218.92
2019-05-30T02:28:35.078Z,99224.86
2019-05-30T02:33:40.635Z,99229.41
2019-05-30T02:38:45.928Z,99234.33
2019-05-30T02:43:51.151Z,99237.03
2019-05-30T02:48:59.312Z,99239.74
2019-05-30T02:54:04.128Z,99242.22
2019-05-30T02:59:11.616Z,99245.84
2019-05-30T03:04:17.755Z,99247.03
2019-05-30T03:09:23.168Z,99246.95
2019-05-30T03:14:28.550Z,99253.05
2019-05-30T03:19:33.771Z,99244.67
2019-05-30T03:24:40.219Z,99238.10
2019-05-30T03:29:45.856Z,99241.42
2019-05-30T03:34:51.148Z,99244.66
2019-05-30T03:39:56.893Z,99246.53
2019-05-30T03:45:04.322Z,99243.92
2019-05-30T03:50:14.490Z,99251.96
2019-05-30T03:55:21.055Z,99251.75
2019-05-30T04:00:35.880Z,99262.01
2019-05-30T04:05:44.880Z,99258.14
2019-05-30T04:10:53.618Z,99261.13
2019-05-30T04:15:58.836Z,99267.98
2019-05-30T04:21:04.275Z,99270.89
2019-05-30T04:26:11.429Z,99270.89
2019-05-30T04:31:17.710Z,99276.55
2019-05-30T04:36:23.945Z,99281.47
2019-05-30T04:41:29.333Z,99279.28
2019-05-30T04:46:34.723Z,99281.62
2019-05-30T04:51:39.971Z,99272.25
2019-05-30T04:56:45.482Z,99272.03
2019-05-30T05:01:50.852Z,99274.05
2019-05-30T05:06:56.072Z,99281.70
2019-05-30T05:12:02.365Z,99282.34
2019-05-30T05:17:07.636Z,99273.20
2019-05-30T05:22:13.297Z,99284.86
2019-05-30T05:27:19.630Z,99284.58
2019-05-30T05:32:24.969Z,99285.26
2019-05-30T05:37:30.180Z,99276.59
2019-05-30T05:42:35.506Z,99278.33
2019-05-30T05:47:40.755Z,99278.14
2019-05-30T05:52:45.976Z,99286.30
2019-05-30T05:57:51.408Z,99285.52
2019-05-30T06:02:56.638Z,99295.25
2019-05-30T06:08:01.946Z,99306.31
2019-05-30T06:13:07.344Z,99311.61
2019-05-30T06:18:12.784Z,99317.55
2019-05-30T06:23:19.414Z,99311.44
2019-05-30T06:28:26.198Z,99313.91
2019-05-30T06:33:31.677Z,99327.27
2019-05-30T06:38:36.910Z,99328.77
2019-05-30T06:43:42.269Z,99329.49
2019-05-30T06:48:47.773Z,99328.72
2019-05-30T06:53:53.373Z,99332.09
2019-05-30T06:58:58.937Z,99341.85
2019-05-30T07:04:05.297Z,99332.94
2019-05-30T07:09:10.808Z,99331.99
2019-05-30T07:14:16.129Z,99330.17
2019-05-30T07:19:21.709Z,99335.20
2019-05-30T07:24:27.773Z,99344.52
2019-05-30T07:29:34.271Z,99349.48
2019-05-30T07:34:39.689Z,99353.56
2019-05-30T07:39:44.978Z,99347.00
2019-05-30T07:44:50.324Z,99349.28
2019-05-30T07:49:55.654Z,99349.14
2019-05-30T07:55:01.020Z,99350.14
2019-05-30T08:00:07.464Z,99345.83
2019-05-30T08:05:23.442Z,99345.52
2019-05-30T08:10:20.984Z,99344.44
2019-05-30T08:15:27.277Z,99345.95
2019-05-30T08:20:33.867Z,99344.31
2019-05-30T08:25:39.235Z,99334.15
2019-05-30T08:30:44.648Z,99338.26
2019-05-30T08:35:50.552Z,99331.05
2019-05-30T08:40:55.914Z,99330.11
2019-05-30T08:46:01.227Z,99331.05
2019-05-30T08:51:06.991Z,99333.67
2019-05-30T08:56:12.300Z,99336.22
2019-05-30T09:01:18.097Z,99332.33
2019-05-30T09:06:23.332Z,99332.41
2019-05-30T09:11:29.532Z,99327.24
2019-05-30T09:16:35.366Z,99326.03
2019-05-30T09:21:41.444Z,99326.08
2019-05-30T09:26:50.179Z,99318.98
2019-05-30T09:31:53.802Z,99318.74
2019-05-30T09:36:59.065Z,99327.73
2019-05-30T09:42:04.400Z,99328.34
2019-05-30T09:47:10.026Z,99328.43
2019-05-30T09:52:15.465Z,99322.65
2019-05-30T09:57:21.045Z,99318.20
2019-05-30T10:02:26.381Z,99316.03
2019-05-30T10:07:31.872Z,99318.75
2019-05-30T10:12:37.170Z,99317.77
2019-05-30T10:17:44.673Z,99324.20
2019-05-30T10:22:51.993Z,99327.25
2019-05-30T10:27:58.238Z,99324.69
2019-05-30T10:33:04.006Z,99316.27
2019-05-30T10:38:11.033Z,99302.92
2019-05-30T10:43:16.820Z,99307.47
2019-05-30T10:48:22.117Z,99306.45
2019-05-30T10:53:27.409Z,99314.23
2019-05-30T10:58:33.294Z,99316.13
2019-05-30T11:03:38.605Z,99329.31
2019-05-30T11:08:47.641Z,99333.52
2019-05-30T11:13:53.374Z,99335.37
2019-05-30T11:18:58.638Z,99339.79
2019-05-30T11:24:03.882Z,99345.70
2019-05-30T11:29:09.441Z,99343.62
2019-05-30T11:34:14.767Z,99350.95
2019-05-30T11:39:20.029Z,99357.08
2019-05-30T11:44:25.280Z,99350.15
2019-05-30T11:49:30.566Z,99344.98
2019-05-30T11:54:36.294Z,99352.21
2019-05-30T11:59:42.590Z,99343.48
2019-05-30T12:04:48.129Z,99350.52
2019-05-30T12:09:54.826Z,99343.44
2019-05-30T12:15:01.782Z,99346.48
2019-05-30T12:20:09.195Z,99334.16
2019-05-30T12:25:15.433Z,99339.48
2019-05-30T12:30:22.829Z,99331.20
2019-05-30T12:35:29.433Z,99330.81
2019-05-30T12:40:34.724Z,99313.17
2019-05-30T12:45:40.029Z,99319.80
2019-05-30T12:50:45.468Z,99315.59
2019-05-30T12:55:51.623Z,99317.68
2019-05-30T13:00:56.872Z,99319.64
2019-05-30T13:06:03.413Z,99318.39
2019-05-30T13:11:08.887Z,99312.36
2019-05-30T13:16:14.188Z,99317.55
2019-05-30T13:21:19.602Z,99308.13
2019-05-30T13:26:25.081Z,99312.41
2019-05-30T13:31:30.680Z,99309.50
2019-05-30T13:36:36.110Z,99303.17
2019-05-30T13:41:41.443Z,99301.59
2019-05-30T13:46:47.865Z,99305.08
2019-05-30T13:51:53.712Z,99313.41
2019-05-30T13:57:01.572Z,99311.64
2019-05-30T14:02:08.161Z,99311.39
2019-05-30T14:07:13.771Z,99302.83
2019-05-30T14:12:19.132Z,99311.52
2019-05-30T14:17:24.362Z,99306.14
2019-05-30T14:22:30.373Z,99305.72
2019-05-30T14:27:35.718Z,99295.09
2019-05-30T14:32:41.444Z,99300.05
2019-05-30T14:37:46.802Z,99296.05
2019-05-30T14:42:52.474Z,99300.03
2019-05-30T14:48:00.113Z,99295.67
2019-05-30T14:53:05.356Z,99300.78
2019-05-30T14:58:11.163Z,99305.94
2019-05-30T15:03:17.531Z,99314.44
2019-05-30T15:08:22.963Z,99310.59
2019-05-30T15:13:28.310Z,99318.30
2019-05-30T15:18:33.681Z,99320.87
2019-05-30T15:23:39.380Z,99312.69
2019-05-30T15:28:46.107Z,99310.64
2019-05-30T15:33:51.721Z,99307.79
2019-05-30T15:38:57.909Z,99297.91
2019-05-30T15:44:03.162Z,99290.64
2019-05-30T15:49:08.750Z,99295.75
2019-05-30T15:54:15.045Z,99302.66
2019-05-30T15:59:20.733Z,99296.28
2019-05-30T16:04:26.114Z,99290.13
2019-05-30T16:09:46.071Z,99288.76
2019-05-30T16:14:38.557Z,99285.88
2019-05-30T16:19:43.993Z,99289.73
2019-05-30T16:24:50.224Z,99289.78
2019-05-30T16:29:55.526Z,99299.56
2019-05-30T16:35:01.147Z,99302.17
2019-05-30T16:40:07.862Z,99305.02
2019-05-30T16:45:20.203Z,99296.42
2019-05-30T16:50:24.578Z,99292.44
2019-05-30T16:55:30.149Z,99295.80
2019-05-30T17:00:35.768Z,99292.02
2019-05-30T17:05:41.562Z,99298.52
2019-05-30T17:10:46.923Z,99294.56
2019-05-30T17:15:52.165Z,99308.05
2019-05-30T17:20:57.753Z,99307.91
2019-05-30T17:26:02.984Z,99309.14
2019-05-30T17:31:08.303Z,99310.38
2019-05-30T17:36:14.572Z,99313.55
2019-05-30T17:41:21.185Z,99312.70
2019-05-30T17:46:27.515Z,99325.22
2019-05-30T17:51:32.823Z,99325.85
2019-05-30T17:56:38.213Z,99330.22
2019-05-30T18:01:43.512Z,99327.67
2019-05-30T18:06:49.447Z,99333.88
2019-05-30T18:11:54.863Z,99342.97
2019-05-30T18:17:00.329Z,99341.62
2019-05-30T18:22:05.937Z,99341.59
2019-05-30T18:27:11.356Z,99342.27
2019-05-30T18:32:18.343Z,99344.13
2019-05-30T18:37:24.269Z,99339.34
2019-05-30T18:42:31.172Z,99337.42
2019-05-30T18:47:36.634Z,99346.68
2019-05-30T18:52:41.886Z,99346.68
2019-05-30T18:57:48.255Z,99340.75
2019-05-30T19:02:53.945Z,99342.22
2019-05-30T19:08:00.103Z,99344.86
2019-05-30T19:13:07.506Z,99343.95
2019-05-30T19:18:13.051Z,99351.59
2019-05-30T19:23:18.460Z,99359.47
2019-05-30T19:28:24.302Z,99366.22
2019-05-30T19:33:30.840Z,99371.68
2019-05-30T19:38:37.621Z,99368.95
2019-05-30T19:43:43.218Z,99377.89
2019-05-30T19:48:48.796Z,99386.63
2019-05-30T19:53:55.584Z,99386.05
2019-05-30T19:59:03.434Z,99395.49
2019-05-30T20:04:08.629Z,99400.73
2019-05-30T20:09:25.075Z,99399.90
2019-05-30T20:14:33.221Z,99406.13
2019-05-30T20:19:41.990Z,99405.95
2019-05-30T20:24:48.822Z,99409.86
2019-05-30T20:29:54.380Z,99414.22
2019-05-30T20:34:59.730Z,99425.36
2019-05-30T20:40:05.834Z,99425.97
2019-05-30T20:45:11.788Z,99431.37
2019-05-30T20:50:19.507Z,99432.72
2019-05-30T20:55:24.926Z,99431.42
2019-05-30T21:00:40.136Z,99428.55
2019-05-30T21:05:46.616Z,99431.34
2019-05-30T21:10:54.842Z,99431.99
2019-05-30T21:16:02.707Z,99431.83
2019-05-30T21:21:08.151Z,99425.70
2019-05-30T21:26:14.561Z,99431.66
2019-05-30T21:31:19.841Z,99431.38
2019-05-30T21:36:26.812Z,99439.11
2019-05-30T21:41:32.857Z,99435.73
2019-05-30T21:46:38.658Z,99438.75
2019-05-30T21:51:44.084Z,99436.30
2019-05-30T21:56:50.299Z,99439.49
2019-05-30T22:01:57.556Z,99437.38
2019-05-30T22:07:03.052Z,99438.27
2019-05-30T22:12:08.912Z,99436.78
2019-05-30T22:17:15.382Z,99428.45
2019-05-30T22:22:20.824Z,99433.42
2019-05-30T22:27:26.147Z,99436.64
2019-05-30T22:32:31.371Z,99432.15
2019-05-30T22:37:36.629Z,99433.95
2019-05-30T22:42:42.012Z,99433.14
2019-05-30T22:47:48.445Z,99435.64
2019-05-30T22:52:53.692Z,99441.80
2019-05-30T22:57:58.915Z,99435.84
2019-05-30T23:03:04.289Z,99434.08
2019-05-30T23:08:09.644Z,99435.48
2019-05-30T23:13:15.077Z,99437.18
2019-05-30T23:18:20.484Z,99432.38
2019-05-30T23:23:25.877Z,99433.47
2019-05-30T23:28:31.138Z,99436.57
2019-05-30T23:33:36.898Z,99440.41
2019-05-30T23:38:42.170Z,99442.80
2019-05-30T23:44:03.195Z,99441.59
2019-05-30T23:48:55.837Z,99441.30
2019-05-30T23:54:01.284Z,99435.16
2019-05-30T23:59:06.676Z,99434.38
